Time;durP1;ratioP1;P1;durP2;ratioP2;P2;SDS_P1;SDS_P2;PMS_P1;PMS_P2;Temp;Humidity;BMP_temperature;BMP_pressure;BME280_temperature;BME280_humidity;BME280_pressure;Samples;Min_cycle;Max_cycle;Signal;HPM_P1;HPM_P2
2021/03/06 00:00:09;;;;;;;9.43;6.53;;;102.70;2227.20;;;;;;5094643;28;20020;-62
2021/03/06 00:02:35;;;;;;;12.07;6.65;;;102.40;2227.20;;;;;;5099291;28;20027;-61
2021/03/06 00:05:01;;;;;;;10.95;6.72;;;102.50;2227.20;;;;;;5111362;28;20026;-62
2021/03/06 00:07:26;;;;;;;10.13;5.97;;;102.70;2227.20;;;;;;5094929;28;20377;-62
2021/03/06 00:09:52;;;;;;;10.20;6.85;;;102.70;2227.20;;;;;;5109661;28;20020;-62
2021/03/06 00:12:18;;;;;;;10.90;6.20;;;102.60;2227.20;;;;;;5107638;28;20070;-62
2021/03/06 00:14:43;;;;;;;9.10;6.32;;;102.80;2227.20;;;;;;5094421;28;20032;-62
2021/03/06 00:17:09;;;;;;;11.55;6.90;;;;;;;;;;5099608;28;20019;-63
2021/03/06 00:19:35;;;;;;;11.45;7.10;;;102.50;2227.20;;;;;;5103384;28;20055;-62
2021/03/06 00:22:01;;;;;;;14.05;7.32;;;102.40;2227.20;;;;;;5111349;28;20508;-63
2021/03/06 00:24:28;;;;;;;13.00;6.88;;;102.40;2227.20;;;;;;5096477;28;20036;-63
2021/03/06 00:26:54;;;;;;;11.07;7.47;;;77.70;2227.20;;;;;;5113336;28;20028;-63
2021/03/06 00:29:20;;;;;;;10.68;6.60;;;77.60;2227.20;;;;;;5101125;28;20038;-63
2021/03/06 00:31:45;;;;;;;11.43;7.35;;;77.70;2227.20;;;;;;5100791;28;20051;-62
2021/03/06 00:34:11;;;;;;;10.23;6.75;;;77.70;2227.20;;;;;;5108160;28;20462;-63
2021/03/06 00:36:37;;;;;;;8.63;5.10;;;102.40;2227.20;;;;;;5104561;28;20050;-63
2021/03/06 00:39:04;;;;;;;9.63;5.45;;;102.50;2227.20;;;;;;5099836;28;20028;-63
2021/03/06 00:41:30;;;;;;;8.55;5.68;;;77.70;2227.20;;;;;;5114009;28;20022;-63
2021/03/06 00:43:56;;;;;;;8.85;5.70;;;77.70;2227.20;;;;;;5114530;28;20032;-63
2021/03/06 00:46:21;;;;;;;11.32;6.15;;;77.70;2227.20;;;;;;5114862;28;20030;-62
2021/03/06 00:48:47;;;;;;;8.32;5.53;;;77.60;2227.20;;;;;;5114340;28;20465;-63
2021/03/06 00:51:13;;;;;;;7.80;4.70;;;102.40;2227.20;;;;;;5096298;28;20077;-63
2021/03/06 00:53:39;;;;;;;8.32;5.53;;;102.50;2227.20;;;;;;5114431;28;20046;-63
2021/03/06 00:56:05;;;;;;;7.47;5.20;;;102.40;2227.20;;;;;;5114741;28;20034;-63
2021/03/06 00:58:30;;;;;;;7.40;5.15;;;102.40;2227.20;;;;;;5114425;28;20027;-63
2021/03/06 01:00:58;;;;;;;8.48;5.50;;;102.40;2227.20;;;;;;5114155;28;20381;-63
2021/03/06 01:03:25;;;;;;;9.55;5.22;;;102.50;2227.20;;;;;;5114324;28;20111;-63
2021/03/06 01:05:51;;;;;;;8.95;5.35;;;102.70;2227.20;;;;;;5114273;28;20500;-63
2021/03/06 01:08:17;;;;;;;8.20;5.38;;;102.90;2227.20;;;;;;5114220;28;20023;-63
2021/03/06 01:10:45;;;;;;;6.75;4.78;;;102.90;2227.20;;;;;;5113977;28;20436;-63
2021/03/06 01:13:11;;;;;;;7.97;5.28;;;103.00;2227.20;;;;;;5104139;28;20474;-63
2021/03/06 01:15:37;;;;;;;8.57;5.55;;;103.10;2227.20;;;;;;5093047;28;20381;-63
2021/03/06 01:18:06;;;;;;;7.82;4.80;;;103.00;2227.20;;;;;;5093277;28;20032;-63
2021/03/06 01:20:32;;;;;;;10.23;5.95;;;103.00;2227.20;;;;;;5078778;28;20028;-63
2021/03/06 01:22:58;;;;;;;7.20;5.03;;;102.80;2227.20;;;;;;5093245;28;20023;-64
2021/03/06 01:25:23;;;;;;;7.13;5.15;;;103.00;2227.20;;;;;;5092951;28;20397;-63
2021/03/06 01:27:49;;;;;;;7.40;5.22;;;103.20;2227.20;;;;;;5092940;28;20031;-63
2021/03/06 01:30:16;;;;;;;9.30;5.13;;;103.20;2227.20;;;;;;5092599;28;20103;-63
2021/03/06 01:32:42;;;;;;;9.10;5.47;;;103.10;2227.20;;;;;;5083120;28;20495;-63
2021/03/06 01:35:10;;;;;;;7.78;4.82;;;128.00;2252.80;;;;;;5084328;28;20086;-64
2021/03/06 01:37:39;;;;;;;8.18;5.50;;;128.00;2252.80;;;;;;5072572;28;20043;-63
2021/03/06 01:40:17;;;;;;;8.98;5.38;;;103.10;2227.20;;;;;;5073297;28;20431;-64
2021/03/06 01:42:43;;;;;;;8.45;5.25;;;103.00;2227.20;;;;;;5073442;28;20025;-63
2021/03/06 01:45:09;;;;;;;7.63;5.13;;;103.00;2227.20;;;;;;5072947;28;20481;-64
2021/03/06 01:47:37;;;;;;;7.85;5.00;;;102.80;2227.20;;;;;;5072812;28;20017;-64
2021/03/06 01:50:05;;;;;;;8.32;5.75;;;103.00;2227.20;;;;;;5072968;28;20061;-65
2021/03/06 01:52:31;;;;;;;7.07;4.93;;;103.00;2227.20;;;;;;5073307;28;20036;-64
2021/03/06 01:54:57;;;;;;;7.97;5.38;;;102.90;2227.20;;;;;;5072793;28;20032;-63
2021/03/06 01:57:24;;;;;;;10.15;5.82;;;103.10;2227.20;;;;;;5073139;28;20066;-63
2021/03/06 01:59:50;;;;;;;8.57;5.47;;;103.10;2227.20;;;;;;5073176;28;20166;-63
2021/03/06 02:02:16;;;;;;;7.85;5.07;;;103.30;2227.20;;;;;;5072362;28;20062;-63
2021/03/06 02:04:42;;;;;;;8.00;5.35;;;103.30;2227.20;;;;;;5054311;28;20368;-63
2021/03/06 02:07:08;;;;;;;7.00;5.40;;;103.10;2227.20;;;;;;5072556;28;20036;-63
2021/03/06 02:09:33;;;;;;;9.07;5.55;;;103.10;2227.20;;;;;;5072578;28;20385;-63
2021/03/06 02:12:09;;;;;;;9.60;5.72;;;103.10;2227.20;;;;;;5072748;28;20025;-63
2021/03/06 02:14:43;;;;;;;9.00;5.65;;;128.00;2252.80;;;;;;5071136;28;20032;-63
2021/03/06 02:17:15;;;;;;;9.65;5.35;;;128.00;2252.80;;;;;;5071896;28;20474;-63
2021/03/06 02:20:18;;;;;;;9.27;5.20;;;128.00;2252.80;;;;;;5077523;28;20036;-63
2021/03/06 02:23:05;;;;;;;7.80;5.20;;;128.00;2252.80;;;;;;5085934;28;20024;-63
2021/03/06 02:25:39;;;;;;;8.57;4.80;;;128.10;2252.80;;;;;;5086931;28;20028;-63
2021/03/06 02:28:24;;;;;;;9.02;6.15;;;128.10;2252.80;;;;;;5091979;28;20068;-63
2021/03/06 02:30:52;;;;;;;9.40;5.93;;;128.20;2252.80;;;;;;5089045;28;20031;-63
2021/03/06 02:33:19;;;;;;;9.77;6.07;;;128.20;2252.80;;;;;;5087115;28;20050;-63
2021/03/06 02:35:48;;;;;;;11.32;6.55;;;128.50;2252.80;;;;;;5111925;28;20032;-63
2021/03/06 02:38:15;;;;;;;;;;;128.60;2252.80;;;;;;5112645;28;20076;-63
2021/03/06 02:40:42;;;;;;;8.20;5.85;;;128.60;2252.80;;;;;;5112150;28;20361;-64
2021/03/06 02:43:09;;;;;;;11.25;6.93;;;128.50;2252.80;;;;;;5112256;28;20020;-64
2021/03/06 02:45:36;;;;;;;11.23;6.30;;;128.30;2252.80;;;;;;5112097;28;20528;-62
2021/03/06 02:48:02;;;;;;;11.18;6.63;;;128.50;2252.80;;;;;;5108377;28;20016;-64
2021/03/06 02:50:28;;;;;;;10.20;6.68;;;128.30;2252.80;;;;;;5096538;28;20015;-65
2021/03/06 02:52:54;;;;;;;12.32;6.90;;;128.10;2252.80;;;;;;5112140;28;20054;-63
2021/03/06 02:55:19;;;;;;;11.93;7.22;;;128.10;2252.80;;;;;;5101713;28;20050;-63
2021/03/06 02:58:10;;;;;;;11.95;7.35;;;103.30;2227.20;;;;;;5091618;28;20052;-63
2021/03/06 03:00:48;;;;;;;9.65;6.25;;;128.00;2252.80;;;;;;5090069;28;20032;-64
2021/03/06 03:03:33;;;;;;;10.60;6.23;;;103.20;2227.20;;;;;;5088318;28;20073;-64
2021/03/06 03:05:59;;;;;;;11.15;6.90;;;103.20;2227.20;;;;;;5091859;28;20033;-65
2021/03/06 03:08:31;;;;;;;11.25;6.18;;;103.20;2227.20;;;;;;5088730;28;20020;-64
2021/03/06 03:11:02;;;;;;;10.90;7.03;;;103.30;2227.20;;;;;;5091923;28;20453;-64
2021/03/06 03:13:27;;;;;;;12.02;6.78;;;128.10;2252.80;;;;;;5088718;28;20020;-64
2021/03/06 03:16:01;;;;;;;11.80;7.03;;;128.10;2252.80;;;;;;5093481;28;20043;-64
2021/03/06 03:18:32;;;;;;;9.57;6.30;;;128.20;2252.80;;;;;;5091095;28;20025;-64
2021/03/06 03:21:00;;;;;;;10.73;6.93;;;128.10;2252.80;;;;;;5093849;28;20047;-64
2021/03/06 03:23:39;;;;;;;10.15;6.63;;;103.10;2227.20;;;;;;5095207;28;20084;-63
2021/03/06 03:26:09;;;;;;;9.35;6.15;;;103.30;2227.20;;;;;;5114281;28;20419;-64
2021/03/06 03:28:37;;;;;;;11.45;6.55;;;103.20;2176.00;;;;;;5100715;28;20488;-64
2021/03/06 03:31:04;;;;;;;9.00;6.20;;;103.10;2227.20;;;;;;5113813;28;20062;-65
2021/03/06 03:33:31;;;;;;;10.85;6.22;;;103.10;2201.60;;;;;;5115675;28;20096;-64
2021/03/06 03:35:57;;;;;;;12.27;7.30;;;103.30;2176.00;;;;;;5116030;28;20409;-64
2021/03/06 03:38:23;;;;;;;10.05;6.97;;;103.30;2124.80;;;;;;5116084;28;20027;-64
2021/03/06 03:40:50;;;;;;;10.50;6.03;;;103.00;2150.40;;;;;;5115870;28;20028;-64
2021/03/06 03:43:16;;;;;;;10.75;5.90;;;103.00;2176.00;;;;;;5116206;28;20081;-64
2021/03/06 03:45:42;;;;;;;10.25;6.47;;;103.20;2150.40;;;;;;5115689;28;20033;-64
2021/03/06 03:48:09;;;;;;;11.05;6.82;;;103.20;2150.40;;;;;;5115813;28;20094;-64
2021/03/06 03:50:35;;;;;;;9.07;6.40;;;103.10;2201.60;;;;;;5115953;28;20020;-64
2021/03/06 03:53:01;;;;;;;12.82;7.22;;;103.10;2227.20;;;;;;5116062;28;20038;-64
2021/03/06 03:55:27;;;;;;;11.85;6.63;;;103.00;2227.20;;;;;;5115848;28;20028;-64
2021/03/06 03:57:54;;;;;;;13.63;7.80;;;103.10;2227.20;;;;;;5115537;28;20058;-64
2021/03/06 04:00:20;;;;;;;9.95;6.78;;;103.00;2227.20;;;;;;5115637;28;20026;-64
2021/03/06 04:02:47;;;;;;;10.70;7.07;;;103.00;2227.20;;;;;;5110085;28;20020;-64
2021/03/06 04:05:14;;;;;;;10.77;7.55;;;103.10;2227.20;;;;;;5114979;28;20541;-65
2021/03/06 04:07:44;;;;;;;11.63;6.95;;;102.90;2227.20;;;;;;5108931;28;20393;-64
2021/03/06 04:10:12;;;;;;;12.00;7.40;;;103.00;2227.20;;;;;;5093362;28;20020;-64
2021/03/06 04:12:39;;;;;;;11.60;7.30;;;102.70;2227.20;;;;;;5089277;28;20031;-64
2021/03/06 04:15:06;;;;;;;9.30;6.60;;;102.70;2201.60;;;;;;5089726;28;20032;-64
2021/03/06 04:17:32;;;;;;;11.85;7.57;;;102.80;2227.20;;;;;;5115264;28;20024;-65
2021/03/06 04:19:58;;;;;;;15.60;7.97;;;102.70;2227.20;;;;;;5114543;28;20113;-64
2021/03/06 04:22:23;;;;;;;11.48;7.97;;;102.90;2227.20;;;;;;5096264;28;20118;-64
2021/03/06 04:24:50;;;;;;;9.70;7.10;;;102.90;2227.20;;;;;;5075271;28;20043;-65
2021/03/06 04:27:16;;;;;;;11.02;7.00;;;102.80;2201.60;;;;;;5094171;28;20028;-64
2021/03/06 04:29:41;;;;;;;10.88;7.47;;;102.80;2176.00;;;;;;5094013;28;20024;-64
2021/03/06 04:32:07;;;;;;;11.10;6.88;;;103.10;2176.00;;;;;;5090465;28;20040;-64
2021/03/06 04:34:33;;;;;;;9.57;6.40;;;103.20;2099.20;;;;;;5093602;28;20038;-65
2021/03/06 04:36:58;;;;;;;10.60;7.47;;;103.10;2099.20;;;;;;5106326;28;20051;-63
2021/03/06 04:39:24;;;;;;;10.65;6.70;;;103.30;2099.20;;;;;;5096279;28;20102;-65
2021/03/06 04:41:50;;;;;;;11.57;7.03;;;103.10;2022.40;;;;;;5093987;28;20024;-64
2021/03/06 04:44:15;;;;;;;9.10;6.63;;;103.00;2048.00;;;;;;5093416;28;20378;-65
2021/03/06 04:46:41;;;;;;;13.10;7.43;;;102.70;2048.00;;;;;;5093863;28;20065;-64
2021/03/06 04:49:07;;;;;;;10.43;6.05;;;102.90;2048.00;;;;;;5090647;28;20463;-65
2021/03/06 04:51:32;;;;;;;13.15;7.15;;;102.90;2022.40;;;;;;5075410;28;20153;-64
2021/03/06 04:53:58;;;;;;;13.05;6.75;;;102.90;1996.80;;;;;;5105332;28;20044;-64
2021/03/06 04:56:25;;;;;;;10.05;6.85;;;103.00;2073.60;;;;;;5114575;28;20027;-64
2021/03/06 04:58:51;;;;;;;11.38;5.93;;;102.80;2048.00;;;;;;5114723;28;20076;-65
2021/03/06 05:01:17;;;;;;;10.55;6.78;;;102.80;2099.20;;;;;;5114309;28;20069;-63
2021/03/06 05:03:43;;;;;;;11.45;6.35;;;102.90;2073.60;;;;;;5114138;28;20142;-63
2021/03/06 05:06:10;;;;;;;11.43;6.68;;;102.90;2048.00;;;;;;5114371;28;20106;-64
2021/03/06 05:08:36;;;;;;;14.27;6.93;;;103.00;1996.80;;;;;;5114322;28;20377;-65
2021/03/06 05:11:01;;;;;;;10.90;7.50;;;103.00;2048.00;;;;;;5114422;28;20028;-65
2021/03/06 05:13:27;;;;;;;10.18;6.90;;;103.00;2022.40;;;;;;5114188;28;20049;-63
2021/03/06 05:15:53;;;;;;;8.48;6.13;;;103.10;2073.60;;;;;;5113960;28;20060;-63
2021/03/06 05:18:18;;;;;;;9.77;5.97;;;103.00;2022.40;;;;;;5114276;28;20028;-64
2021/03/06 05:20:44;;;;;;;10.73;6.20;;;103.00;2022.40;;;;;;5114240;28;20470;-65
2021/03/06 05:23:10;;;;;;;8.38;5.95;;;103.00;2022.40;;;;;;5112139;28;20102;-64
2021/03/06 05:25:35;;;;;;;10.73;5.78;;;102.90;2073.60;;;;;;5073893;28;20070;-63
2021/03/06 05:28:01;;;;;;;11.00;6.57;;;103.00;2022.40;;;;;;5096374;28;20028;-64
2021/03/06 05:30:27;;;;;;;9.30;5.95;;;102.90;2022.40;;;;;;5097924;28;20090;-64
2021/03/06 05:32:53;;;;;;;12.00;6.35;;;102.90;1945.60;;;;;;5101457;28;20052;-63
2021/03/06 05:35:18;;;;;;;7.75;5.70;;;102.80;1945.60;;;;;;5104451;28;20039;-63
2021/03/06 05:37:44;;;;;;;16.15;6.63;;;102.70;1971.20;;;;;;5112396;28;20031;-64
2021/03/06 05:40:10;;;;;;;11.13;6.18;;;;;;;;;;5111847;28;20540;-64
2021/03/06 05:42:36;;;;;;;10.15;6.20;;;;;;;;;;5099192;28;20076;-65
2021/03/06 05:45:04;;;;;;;11.35;6.22;;;;;;;;;;5112731;28;20057;-64
2021/03/06 05:47:31;;;;;;;9.40;5.45;;;;;;;;;;5112865;28;20020;-64
2021/03/06 05:49:57;;;;;;;10.05;5.97;;;;;;;;;;5112697;28;20485;-64
2021/03/06 05:52:24;;;;;;;8.90;5.68;;;;;;;;;;5113058;28;20022;-64
2021/03/06 05:54:50;;;;;;;9.88;5.72;;;;;;;;;;5112627;28;20470;-64
2021/03/06 05:57:17;;;;;;;12.25;6.40;;;;;;;;;;5111453;28;20419;-63
2021/03/06 05:59:47;;;;;;;8.65;5.65;;;;;;;;;;5081257;28;20093;-64
2021/03/06 06:02:16;;;;;;;9.25;5.55;;;;;;;;;;5098682;28;20040;-64
2021/03/06 06:04:42;;;;;;;8.05;5.75;;;;;;;;;;5078359;28;20028;-65
2021/03/06 06:07:08;;;;;;;11.15;6.40;;;;;;;;;;5111442;28;20427;-64
2021/03/06 06:09:34;;;;;;;9.38;5.75;;;;;;;;;;5112578;28;20452;-65
2021/03/06 06:12:01;;;;;;;9.80;5.82;;;;;;;;;;5112792;28;20381;-64
2021/03/06 06:14:27;;;;;;;10.15;5.35;;;;;;;;;;5112183;28;20039;-64
2021/03/06 06:16:53;;;;;;;10.05;5.75;;;;;;;;;;5091548;28;20086;-65
2021/03/06 06:19:19;;;;;;;10.75;6.15;;;;;;;;;;5103636;28;20028;-64
2021/03/06 06:21:46;;;;;;;12.65;6.25;;;;;;;;;;5108324;28;20055;-64
2021/03/06 06:24:21;;;;;;;10.57;6.20;;;128.00;1868.80;;;;;;5091667;28;20055;-65
2021/03/06 06:27:05;;;;;;;9.65;6.20;;;103.20;1817.60;;;;;;5105808;28;20715;-64
2021/03/06 06:29:45;;;;;;;8.52;5.57;;;103.20;1894.40;;;;;;5090236;28;20035;-64
2021/03/06 06:32:21;;;;;;;9.18;5.40;;;128.20;1868.80;;;;;;5089056;28;20452;-65
2021/03/06 06:35:09;;;;;;;9.48;5.70;;;128.50;1792.00;;;;;;5099323;28;20136;-64
2021/03/06 06:37:35;;;;;;;9.52;5.55;;;128.20;1792.00;;;;;;5082108;28;20035;-64
2021/03/06 06:40:16;;;;;;;9.90;6.05;;;128.00;1817.60;;;;;;5099240;28;20091;-64
2021/03/06 06:42:41;;;;;;;10.35;5.70;;;103.20;1817.60;;;;;;5070163;28;20027;-63
2021/03/06 06:45:08;;;;;;;10.35;6.00;;;103.10;1843.20;;;;;;5098759;28;20027;-63
2021/03/06 06:47:42;;;;;;;9.85;5.90;;;103.30;1843.20;;;;;;5091867;28;20126;-63
2021/03/06 06:50:09;;;;;;;10.70;5.93;;;128.30;1817.60;;;;;;5104596;28;20027;-64
2021/03/06 06:52:41;;;;;;;12.27;5.43;;;128.40;1817.60;;;;;;5102498;28;20016;-62
2021/03/06 06:55:08;;;;;;;9.60;5.75;;;128.70;1817.60;;;;;;5096246;28;20043;-64
2021/03/06 06:57:46;;;;;;;8.57;5.22;;;128.90;1740.80;;;;;;5100517;28;20029;-64
2021/03/06 07:00:13;;;;;;;9.30;5.23;;;153.70;1689.60;;;;;;5105148;28;20092;-63
2021/03/06 07:02:54;;;;;;;9.80;5.13;;;128.70;1689.60;;;;;;5091449;28;20276;-63
2021/03/06 07:05:40;;;;;;;10.90;5.25;;;128.80;1715.20;;;;;;5095895;28;20076;-64
2021/03/06 07:08:08;;;;;;;8.98;5.18;;;128.50;1715.20;;;;;;5076319;28;20104;-64
2021/03/06 07:10:34;;;;;;;14.27;6.20;;;128.80;1715.20;;;;;;5079350;28;20048;-65
2021/03/06 07:13:02;;;;;;;8.68;5.45;;;128.50;1715.20;;;;;;5096263;28;20101;-64
2021/03/06 07:15:30;;;;;;;11.32;6.38;;;128.60;1715.20;;;;;;5098659;28;20129;-67
2021/03/06 07:18:01;;;;;;;10.25;5.10;;;128.30;1715.20;;;;;;5097467;28;20024;-64
2021/03/06 07:20:37;;;;;;;12.25;5.70;;;128.40;1715.20;;;;;;5096156;28;20077;-64
2021/03/06 07:23:17;;;;;;;9.48;5.10;;;128.70;1664.00;;;;;;5096055;28;20020;-64
2021/03/06 07:25:44;;;;;;;11.52;5.57;;;128.70;1638.40;;;;;;5095971;28;20027;-64
2021/03/06 07:28:10;;;;;;;9.73;5.32;;;153.60;1638.40;;;;;;5095985;28;20047;-64
2021/03/06 07:30:36;;;;;;;10.13;5.22;;;128.90;1638.40;;;;;;5095732;28;20036;-66
2021/03/06 07:33:05;;;;;;;11.15;6.07;;;128.90;1664.00;;;;;;5091150;28;20040;-66
2021/03/06 07:35:37;;;;;;;7.97;4.80;;;154.00;1587.20;;;;;;5095341;28;20048;-64
2021/03/06 07:38:06;;;;;;;7.47;4.93;;;153.60;1612.80;;;;;;5095760;28;20023;-65
2021/03/06 07:40:36;;;;;;;7.03;4.55;;;153.60;1638.40;;;;;;5095435;28;20028;-64
2021/03/06 07:43:27;;;;;;;10.07;5.32;;;153.80;1612.80;;;;;;5095519;28;20453;-66
2021/03/06 07:45:55;;;;;;;9.88;4.80;;;154.00;1587.20;;;;;;5095802;28;20050;-65
2021/03/06 07:48:25;;;;;;;10.90;5.53;;;154.20;1510.40;;;;;;5095627;28;20031;-64
2021/03/06 07:50:52;;;;;;;10.05;5.78;;;154.40;1536.00;;;;;;5095728;28;20020;-65
2021/03/06 07:53:19;;;;;;;9.95;5.07;;;179.40;1536.00;;;;;;5095719;28;20470;-63
2021/03/06 07:55:47;;;;;;;8.05;4.85;;;179.30;1484.80;;;;;;5095391;28;20055;-65
2021/03/06 07:58:22;;;;;;;9.45;4.47;;;154.40;1510.40;;;;;;5095286;28;20035;-63
2021/03/06 08:00:48;;;;;;;9.73;5.10;;;179.30;1510.40;;;;;;5093971;28;20152;-64
2021/03/06 08:03:23;;;;;;;13.88;6.00;;;179.40;1484.80;;;;;;5095662;28;20036;-64
2021/03/06 08:05:49;;;;;;;15.43;6.32;;;179.80;1484.80;;;;;;5095737;28;20028;-63
2021/03/06 08:08:41;;;;;;;33.05;21.20;;;179.80;1408.00;;;;;;5095105;28;20035;-64
2021/03/06 08:11:22;;;;;;;11.38;7.97;;;180.00;1382.40;;;;;;5071500;28;20036;-64
2021/03/06 08:13:52;;;;;;;14.57;10.43;;;179.90;1382.40;;;;;;5094981;28;20032;-65
2021/03/06 08:16:23;;;;;;;13.43;8.43;;;204.80;1356.80;;;;;;5095262;28;20099;-70
2021/03/06 08:18:59;;;;;;;12.18;6.75;;;204.90;1356.80;;;;;;5097033;28;20020;-63
2021/03/06 08:21:31;;;;;;;11.93;6.57;;;205.10;1331.20;;;;;;5095069;28;20040;-60
2021/03/06 08:24:18;;;;;;;11.23;5.53;;;205.00;1280.00;;;;;;5093417;28;20096;-62
2021/03/06 08:26:54;;;;;;;14.57;5.95;;;179.80;1331.20;;;;;;5076581;28;20028;-61
2021/03/06 08:29:23;;;;;;;10.93;5.18;;;179.80;1305.60;;;;;;5075626;28;20032;-61
2021/03/06 08:32:01;;;;;;;8.40;4.82;;;179.60;1331.20;;;;;;5077949;28;20394;-61
2021/03/06 08:34:31;;;;;;;11.70;8.60;;;179.80;1356.80;;;;;;5060612;28;20337;-61
2021/03/06 08:37:20;;;;;;;15.13;7.20;;;179.90;1331.20;;;;;;5073694;28;20082;-61
2021/03/06 08:39:50;;;;;;;7.93;5.07;;;179.90;1305.60;;;;;;5073538;28;20025;-61
2021/03/06 08:42:19;;;;;;;12.10;7.18;;;180.10;1305.60;;;;;;5073950;28;20108;-60
2021/03/06 08:44:45;;;;;;;;;;;204.90;1305.60;;;;;;5074074;28;20087;-61
2021/03/06 08:47:12;;;;;;;14.35;6.68;;;205.30;1305.60;;;;;;5073782;28;19950;-61
2021/03/06 08:49:38;;;;;;;10.65;4.90;;;205.50;1280.00;;;;;;5073450;28;20020;-61
2021/03/06 08:52:04;;;;;;;14.93;10.30;;;205.70;1228.80;;;;;;5073534;28;20028;-61
2021/03/06 08:54:41;;;;;;;11.05;6.40;;;205.50;1228.80;;;;;;5073027;28;20040;-61
2021/03/06 08:57:22;;;;;;;7.00;5.07;;;205.70;1177.60;;;;;;5073497;28;20031;-61
2021/03/06 08:59:48;;;;;;;9.32;4.85;;;230.50;1177.60;;;;;;5073395;28;20438;-61
2021/03/06 09:02:18;;;;;;;9.55;4.93;;;205.50;1203.20;;;;;;5073798;28;20089;-61
2021/03/06 09:04:45;;;;;;;11.57;5.68;;;205.60;1228.80;;;;;;5073004;28;20017;-61
2021/03/06 09:07:23;;;;;;;24.77;16.50;;;230.70;1177.60;;;;;;5055646;28;20025;-60
2021/03/06 09:09:49;;;;;;;25.08;20.80;;;231.20;1152.00;;;;;;5073026;28;20024;-61
2021/03/06 09:12:15;;;;;;;58.35;52.30;;;231.20;1100.80;;;;;;5073258;28;20025;-61
2021/03/06 09:14:41;;;;;;;16.83;12.07;;;231.10;1126.40;;;;;;5073230;28;20032;-61
2021/03/06 09:17:11;;;;;;;10.13;5.07;;;256.10;1126.40;;;;;;5073511;28;20036;-61
2021/03/06 09:19:37;;;;;;;9.75;5.50;;;256.10;1049.60;;;;;;5074222;28;20033;-61
2021/03/06 09:22:06;;;;;;;11.63;6.28;;;256.40;1049.60;;;;;;5072763;28;20087;-61
2021/03/06 09:24:49;;;;;;;8.75;4.60;;;256.10;1049.60;;;;;;5072770;28;20544;-62
2021/03/06 09:27:16;;;;;;;7.50;4.30;;;231.00;1075.20;;;;;;5072797;28;20017;-61
2021/03/06 09:29:44;;;;;;;15.55;11.15;;;230.70;1049.60;;;;;;5054974;28;20032;-61
2021/03/06 09:32:10;;;;;;;8.02;4.47;;;230.70;1075.20;;;;;;5076923;28;20492;-61
2021/03/06 09:34:37;;;;;;;10.77;5.43;;;231.00;1049.60;;;;;;5092743;28;20044;-61
2021/03/06 09:37:23;;;;;;;10.35;4.80;;;230.60;1075.20;;;;;;5092691;28;20516;-61
2021/03/06 09:39:49;;;;;;;8.07;4.88;;;230.40;1075.20;;;;;;5092510;28;20066;-62
2021/03/06 09:42:18;;;;;;;9.23;4.28;;;205.60;1126.40;;;;;;5074662;28;20067;-61
2021/03/06 09:44:50;;;;;;;7.57;4.15;;;205.70;1100.80;;;;;;5092377;28;20024;-61
2021/03/06 09:47:24;;;;;;;8.52;5.00;;;205.60;1075.20;;;;;;5092315;28;20090;-62
2021/03/06 09:49:51;;;;;;;8.27;4.00;;;205.40;1126.40;;;;;;5100790;28;20039;-61
2021/03/06 09:52:16;;;;;;;7.82;4.35;;;205.50;1126.40;;;;;;5096260;28;20063;-60
2021/03/06 09:54:42;;;;;;;7.78;3.95;;;205.70;1152.00;;;;;;5097343;28;20070;-61
2021/03/06 09:57:08;;;;;;;6.80;4.07;;;205.40;1100.80;;;;;;5110185;28;20031;-61
2021/03/06 09:59:39;;;;;;;6.45;3.85;;;205.40;1100.80;;;;;;5095584;28;20487;-60
2021/03/06 10:02:08;;;;;;;4.78;3.33;;;205.50;1075.20;;;;;;5100352;28;20572;-61
2021/03/06 10:04:34;;;;;;;5.47;3.45;;;205.20;1075.20;;;;;;5085537;28;20032;-61
2021/03/06 10:07:06;;;;;;;5.95;3.30;;;205.10;1075.20;;;;;;5092690;28;20058;-61
2021/03/06 10:09:33;;;;;;;9.23;4.30;;;204.90;1075.20;;;;;;5092773;28;20028;-61
2021/03/06 10:12:08;;;;;;;8.32;4.68;;;205.10;1305.60;;;;;;5092687;28;20433;-61
2021/03/06 10:14:35;;;;;;;9.43;3.97;;;205.20;1100.80;;;;;;5092483;28;20028;-62
2021/03/06 10:17:03;;;;;;;6.30;2.92;;;205.00;1075.20;;;;;;5093019;28;20024;-61
2021/03/06 10:19:30;;;;;;;;;;;205.10;1049.60;;;;;;5093183;28;20426;-61
2021/03/06 10:22:05;;;;;;;10.43;3.72;;;205.20;1075.20;;;;;;5092817;28;19911;-62
2021/03/06 10:24:50;;;;;;;6.75;3.47;;;205.30;1049.60;;;;;;5092061;28;20058;-61
2021/03/06 10:27:16;;;;;;;5.97;3.20;;;205.30;1075.20;;;;;;5094675;28;20374;-61
2021/03/06 10:29:42;;;;;;;6.32;3.22;;;205.00;1024.00;;;;;;5093817;28;20103;-61
2021/03/06 10:32:08;;;;;;;6.07;2.92;;;204.90;1049.60;;;;;;5092733;28;20039;-61
2021/03/06 10:34:37;;;;;;;8.35;3.60;;;204.90;1024.00;;;;;;5093324;28;20078;-62
2021/03/06 10:37:16;;;;;;;7.00;2.95;;;205.10;1049.60;;;;;;5092764;28;20043;-61
2021/03/06 10:39:57;;;;;;;4.88;3.10;;;205.20;998.40;;;;;;5093484;28;20107;-61
2021/03/06 10:42:26;;;;;;;5.55;2.72;;;204.90;998.40;;;;;;5087600;28;20098;-61
2021/03/06 10:44:52;;;;;;;7.20;3.45;;;204.90;998.40;;;;;;5097852;28;20074;-61
2021/03/06 10:47:18;;;;;;;7.45;3.70;;;205.00;1024.00;;;;;;5105469;28;20052;-61
2021/03/06 10:49:48;;;;;;;7.53;3.75;;;205.10;998.40;;;;;;5093641;28;20059;-64
2021/03/06 10:52:29;;;;;;;5.95;3.17;;;205.30;998.40;;;;;;5094119;28;20126;-63
2021/03/06 10:54:58;;;;;;;6.72;2.67;;;205.00;972.80;;;;;;5093792;28;20039;-61
2021/03/06 10:57:27;;;;;;;4.22;2.75;;;205.40;921.60;;;;;;5094593;28;20043;-66
2021/03/06 10:59:53;;;;;;;4.70;2.90;;;205.40;896.00;;;;;;5094712;28;20078;-63
2021/03/06 11:02:32;;;;;;;4.45;3.10;;;205.60;921.60;;;;;;5093349;28;20055;-61
2021/03/06 11:05:17;;;;;;;6.18;3.22;;;;;;;;;;5092162;28;20063;-61
2021/03/06 11:07:43;;;;;;;5.30;2.90;;;230.60;896.00;;;;;;5092259;28;20070;-61
2021/03/06 11:10:09;;;;;;;8.43;3.25;;;230.60;844.80;;;;;;5092183;28;20028;-62
2021/03/06 11:12:35;;;;;;;6.88;3.50;;;230.70;921.60;;;;;;5092301;28;20034;-62
2021/03/06 11:15:28;;;;;;;5.70;3.35;;;231.00;844.80;;;;;;5092594;28;20046;-60
2021/03/06 11:17:56;;;;;;;6.20;3.47;;;230.90;870.40;;;;;;5089701;28;20392;-61
2021/03/06 11:20:27;;;;;;;6.30;3.70;;;230.80;870.40;;;;;;5092753;28;20036;-61
2021/03/06 11:22:53;;;;;;;5.88;3.53;;;230.80;870.40;;;;;;5093013;28;20042;-61
2021/03/06 11:25:20;;;;;;;4.88;3.58;;;231.20;819.20;;;;;;5091742;28;20107;-62
2021/03/06 11:27:51;;;;;;;5.47;3.38;;;231.20;844.80;;;;;;5074345;28;20070;-61
2021/03/06 11:30:35;;;;;;;6.05;3.65;;;231.20;844.80;;;;;;5091467;28;20056;-61
2021/03/06 11:33:03;;;;;;;5.75;4.13;;;256.00;844.80;;;;;;5091339;28;20044;-60
2021/03/06 11:35:30;;;;;;;6.88;4.25;;;256.30;844.80;;;;;;5076032;28;20086;-61
2021/03/06 11:37:56;;;;;;;8.60;4.60;;;256.40;844.80;;;;;;5095025;28;20028;-61
2021/03/06 11:40:26;;;;;;;11.15;5.03;;;256.20;844.80;;;;;;5094897;28;20078;-61
2021/03/06 11:42:53;;;;;;;6.35;3.65;;;256.00;844.80;;;;;;5095078;28;20047;-61
2021/03/06 11:45:21;;;;;;;8.52;3.95;;;256.80;844.80;;;;;;5095210;28;20058;-62
2021/03/06 11:47:47;;;;;;;8.45;3.28;;;281.60;793.60;;;;;;5095026;28;20141;-61
2021/03/06 11:50:16;;;;;;;6.05;3.75;;;256.80;742.40;;;;;;5094937;28;20024;-62
2021/03/06 11:52:47;;;;;;;8.20;4.00;;;256.50;768.00;;;;;;5103505;23;20039;-61
2021/03/06 11:55:13;;;;;;;7.25;3.92;;;256.30;768.00;;;;;;5089811;28;20500;-62
2021/03/06 11:57:39;;;;;;;6.85;4.03;;;256.20;768.00;;;;;;5115628;28;20088;-61
2021/03/06 12:00:11;;;;;;;7.00;3.95;;;256.80;742.40;;;;;;5098241;28;20035;-66
2021/03/06 12:02:37;;;;;;;7.32;3.45;;;256.10;768.00;;;;;;5117153;28;20016;-61
2021/03/06 12:05:04;;;;;;;4.25;2.80;;;231.30;716.80;;;;;;5116937;28;20043;-61
2021/03/06 12:07:30;;;;;;;4.60;3.30;;;230.90;768.00;;;;;;5117084;28;20482;-61
2021/03/06 12:09:56;;;;;;;6.55;3.70;;;230.70;793.60;;;;;;5117114;28;20054;-63
2021/03/06 12:12:22;;;;;;;5.85;3.45;;;230.70;819.20;;;;;;5117967;28;20055;-60
2021/03/06 12:14:47;;;;;;;7.28;3.60;;;230.80;793.60;;;;;;5097261;28;20044;-62
2021/03/06 12:17:13;;;;;;;4.47;3.30;;;231.10;768.00;;;;;;5115676;28;20102;-62
2021/03/06 12:19:39;;;;;;;5.20;3.05;;;231.10;742.40;;;;;;5115635;28;20077;-61
2021/03/06 12:22:05;;;;;;;4.05;3.03;;;256.20;716.80;;;;;;5114862;28;20020;-61
2021/03/06 12:24:30;;;;;;;4.63;3.67;;;256.10;742.40;;;;;;5097077;28;20035;-61
2021/03/06 12:26:56;;;;;;;5.22;3.05;;;231.00;768.00;;;;;;5114221;28;20042;-62
2021/03/06 12:29:22;;;;;;;5.60;3.47;;;230.70;768.00;;;;;;5095617;28;20035;-62
2021/03/06 12:31:48;;;;;;;4.55;3.00;;;230.40;768.00;;;;;;5114516;28;20024;-62